createdAt,value
2018-03-17T00:00:36.772Z,19.93
2018-03-17T00:03:05.073Z,16.50
2018-03-17T00:05:33.345Z,17.43
2018-03-17T00:08:01.660Z,14.93
2018-03-17T00:10:29.933Z,15.15
2018-03-17T00:12:58.261Z,15.30
2018-03-17T00:15:26.549Z,17.40
2018-03-17T00:17:54.837Z,16.07
2018-03-17T00:20:23.106Z,18.77
2018-03-17T00:22:51.420Z,16.83
2018-03-17T00:25:19.732Z,21.10
2018-03-17T00:27:48.053Z,21.63
2018-03-17T00:30:16.386Z,18.98
2018-03-17T00:32:44.663Z,18.93
2018-03-17T00:35:13.047Z,17.43
2018-03-17T00:37:41.427Z,18.13
2018-03-17T00:40:09.735Z,17.52
2018-03-17T00:42:38.251Z,17.07
2018-03-17T00:45:06.560Z,20.60
2018-03-17T00:47:34.898Z,17.87
2018-03-17T00:50:03.341Z,19.67
2018-03-17T00:52:31.615Z,19.70
2018-03-17T00:54:59.951Z,23.00
2018-03-17T00:57:28.536Z,18.40
2018-03-17T00:59:58.395Z,18.87
2018-03-17T01:02:26.669Z,20.53
2018-03-17T01:04:54.999Z,20.87
2018-03-17T01:07:23.304Z,20.93
2018-03-17T01:09:51.858Z,20.07
2018-03-17T01:12:20.179Z,20.30
2018-03-17T01:14:48.470Z,21.20
2018-03-17T01:17:16.808Z,20.45
2018-03-17T01:19:45.244Z,30.63
2018-03-17T01:22:13.590Z,19.67
2018-03-17T01:24:42.115Z,22.67
2018-03-17T01:27:10.364Z,22.70
2018-03-17T01:29:38.700Z,21.67
2018-03-17T01:32:07.335Z,20.77
2018-03-17T01:34:35.616Z,20.77
2018-03-17T01:37:04.605Z,20.77
2018-03-17T01:39:32.861Z,18.50
2018-03-17T01:42:01.161Z,20.73
2018-03-17T01:44:29.425Z,21.83
2018-03-17T01:46:57.735Z,20.50
2018-03-17T01:49:26.017Z,20.97
2018-03-17T01:51:54.341Z,19.90
2018-03-17T01:54:34.300Z,22.83
2018-03-17T01:57:02.620Z,22.00
2018-03-17T01:59:30.922Z,22.20
2018-03-17T02:01:59.235Z,21.80
2018-03-17T02:04:27.504Z,23.80
2018-03-17T02:06:55.817Z,24.77
2018-03-17T02:09:24.105Z,23.03
2018-03-17T02:11:52.401Z,25.00
2018-03-17T02:14:21.040Z,21.33
2018-03-17T02:16:49.394Z,22.55
2018-03-17T02:19:17.672Z,24.93
2018-03-17T02:21:45.972Z,21.30
2018-03-17T02:24:14.276Z,30.23
2018-03-17T02:26:42.593Z,25.40
2018-03-17T02:29:10.866Z,24.10
2018-03-17T02:31:39.354Z,25.03
2018-03-17T02:34:07.623Z,28.10
2018-03-17T02:36:35.907Z,25.17
2018-03-17T02:39:04.513Z,24.85
2018-03-17T02:41:32.784Z,23.63
2018-03-17T02:44:01.100Z,22.10
2018-03-17T02:46:29.348Z,25.10
2018-03-17T02:48:57.653Z,24.87
2018-03-17T02:51:25.940Z,25.03
2018-03-17T02:53:54.253Z,22.00
2018-03-17T02:56:22.516Z,28.15
2018-03-17T02:58:50.829Z,22.43
2018-03-17T03:01:19.103Z,23.17
2018-03-17T03:03:47.418Z,21.03
2018-03-17T03:06:15.734Z,20.37
2018-03-17T03:08:44.065Z,21.70
2018-03-17T03:11:12.375Z,21.98
2018-03-17T03:13:40.683Z,22.40
2018-03-17T03:16:08.972Z,20.57
2018-03-17T03:18:37.257Z,20.77
2018-03-17T03:21:04.842Z,16.70
2018-03-17T03:23:32.937Z,22.87
2018-03-17T03:26:01.200Z,20.80
2018-03-17T03:28:29.504Z,21.23
2018-03-17T03:30:57.813Z,23.47
2018-03-17T03:33:26.099Z,22.03
2018-03-17T03:35:54.375Z,19.90
2018-03-17T03:38:22.675Z,20.67
2018-03-17T03:40:50.999Z,20.93
2018-03-17T03:43:19.320Z,23.23
2018-03-17T03:45:47.631Z,18.93
2018-03-17T03:48:17.293Z,19.20
2018-03-17T03:50:45.609Z,22.50
2018-03-17T03:53:13.891Z,21.90
2018-03-17T03:55:42.174Z,23.10
2018-03-17T03:58:10.819Z,22.37
2018-03-17T04:00:39.147Z,23.80
2018-03-17T04:03:07.410Z,23.73
2018-03-17T04:05:35.718Z,23.70
2018-03-17T04:08:04.484Z,24.75
2018-03-17T04:10:32.816Z,21.40
2018-03-17T04:13:01.095Z,26.93
2018-03-17T04:15:30.011Z,27.93
2018-03-17T04:17:58.293Z,24.90
2018-03-17T04:20:26.637Z,23.80
2018-03-17T04:22:54.943Z,22.43
2018-03-17T04:25:23.298Z,24.40
2018-03-17T04:27:51.632Z,26.70
2018-03-17T04:30:19.915Z,21.63
2018-03-17T04:32:48.226Z,25.40
2018-03-17T04:35:16.844Z,25.27
2018-03-17T04:37:45.163Z,24.27
2018-03-17T04:40:13.464Z,26.07
2018-03-17T04:42:41.775Z,25.20
2018-03-17T04:45:10.044Z,25.33
2018-03-17T04:47:38.341Z,24.33
2018-03-17T04:50:06.658Z,23.57
2018-03-17T04:52:34.981Z,25.50
2018-03-17T04:55:04.164Z,25.17
2018-03-17T04:57:32.464Z,26.87
2018-03-17T05:00:00.776Z,38.30
2018-03-17T05:02:29.055Z,25.70
2018-03-17T05:04:57.672Z,25.47
2018-03-17T05:07:25.958Z,25.80
2018-03-17T05:09:54.252Z,28.15
2018-03-17T05:12:22.763Z,29.63
2018-03-17T05:14:51.050Z,26.60
2018-03-17T05:17:19.366Z,28.30
2018-03-17T05:19:47.654Z,27.30
2018-03-17T05:22:15.953Z,21.60
2018-03-17T05:24:44.212Z,29.00
2018-03-17T05:27:12.504Z,28.97
2018-03-17T05:29:40.808Z,29.90
2018-03-17T05:32:09.972Z,27.05
2018-03-17T05:34:38.273Z,28.27
2018-03-17T05:37:06.532Z,29.93
2018-03-17T05:39:34.835Z,29.93
2018-03-17T05:42:03.113Z,29.90
2018-03-17T05:44:31.403Z,32.67
2018-03-17T05:46:59.682Z,29.47
2018-03-17T05:49:28.017Z,29.67
2018-03-17T05:51:56.287Z,26.75
2018-03-17T05:54:24.641Z,28.50
2018-03-17T05:56:53.561Z,26.67
2018-03-17T05:59:21.858Z,28.90
2018-03-17T06:01:51.051Z,29.60
2018-03-17T06:04:19.400Z,27.37
2018-03-17T06:06:47.676Z,31.07
2018-03-17T06:09:15.972Z,27.03
2018-03-17T06:11:44.239Z,28.87
2018-03-17T06:14:12.565Z,26.55
2018-03-17T06:16:40.864Z,36.53
2018-03-17T06:19:09.162Z,27.60
2018-03-17T06:21:37.445Z,27.87
2018-03-17T06:24:05.744Z,29.15
2018-03-17T06:26:34.031Z,37.63
2018-03-17T06:29:02.342Z,28.10
2018-03-17T06:31:30.631Z,28.33
2018-03-17T06:33:58.939Z,26.20
2018-03-17T06:36:27.228Z,28.80
2018-03-17T06:38:55.555Z,26.67
2018-03-17T06:41:23.877Z,26.98
2018-03-17T06:43:52.148Z,31.37
2018-03-17T06:46:20.448Z,32.25
2018-03-17T06:48:48.750Z,27.23
2018-03-17T06:51:17.078Z,31.17
2018-03-17T06:53:46.168Z,27.10
2018-03-17T06:56:14.500Z,20.80
2018-03-17T06:58:42.744Z,30.57
2018-03-17T07:01:11.067Z,27.30
2018-03-17T07:03:39.371Z,24.60
2018-03-17T07:06:07.677Z,23.50
2018-03-17T07:08:36.549Z,29.13
2018-03-17T07:11:05.893Z,25.10
2018-03-17T07:13:34.149Z,25.33
2018-03-17T07:16:02.507Z,24.63
2018-03-17T07:18:30.783Z,25.50
2018-03-17T07:20:59.101Z,24.30
2018-03-17T07:23:27.508Z,31.20
2018-03-17T07:25:55.767Z,24.77
2018-03-17T07:28:24.092Z,36.00
2018-03-17T07:30:52.379Z,26.20
2018-03-17T07:33:20.706Z,25.60
2018-03-17T07:35:49.039Z,25.23
2018-03-17T07:38:17.253Z,26.12
2018-03-17T07:40:45.618Z,26.10
2018-03-17T07:43:13.938Z,27.10
2018-03-17T07:45:42.247Z,22.17
2018-03-17T07:48:10.547Z,25.00
2018-03-17T07:50:38.880Z,25.62
2018-03-17T07:53:07.173Z,22.10
2018-03-17T07:55:35.488Z,23.20
2018-03-17T07:58:03.801Z,27.13
2018-03-17T08:00:32.147Z,28.93
2018-03-17T08:03:00.490Z,26.10
2018-03-17T08:05:28.769Z,25.30
2018-03-17T08:07:57.478Z,26.30
2018-03-17T08:10:25.729Z,27.47
2018-03-17T08:12:54.042Z,29.60
2018-03-17T08:15:22.385Z,22.77
2018-03-17T08:17:50.676Z,26.23
2018-03-17T08:20:18.952Z,21.77
2018-03-17T08:22:47.278Z,25.52
2018-03-17T08:25:15.537Z,21.58
2018-03-17T08:27:43.854Z,23.20
2018-03-17T08:30:12.187Z,24.70
2018-03-17T08:32:40.907Z,25.83
2018-03-17T08:35:09.215Z,19.55
2018-03-17T08:37:37.492Z,22.77
2018-03-17T08:40:05.818Z,21.33
2018-03-17T08:42:34.097Z,25.13
2018-03-17T08:45:02.409Z,21.27
2018-03-17T08:47:30.712Z,22.90
2018-03-17T08:49:59.029Z,21.43
2018-03-17T08:52:28.151Z,22.13
2018-03-17T08:54:57.314Z,26.87
2018-03-17T08:57:25.713Z,21.57
2018-03-17T08:59:54.775Z,22.50
2018-03-17T09:02:23.137Z,20.77
2018-03-17T09:04:51.488Z,23.50
2018-03-17T09:07:21.120Z,19.90
2018-03-17T09:09:50.425Z,21.40
2018-03-17T09:12:19.385Z,20.65
2018-03-17T09:14:47.800Z,20.40
2018-03-17T09:17:16.149Z,21.17
2018-03-17T09:19:44.752Z,21.02
2018-03-17T09:22:13.006Z,23.23
2018-03-17T09:24:41.312Z,21.60
2018-03-17T09:27:09.590Z,26.00
2018-03-17T09:29:37.946Z,21.30
2018-03-17T09:32:06.920Z,28.77
2018-03-17T09:34:35.244Z,23.43
2018-03-17T09:37:04.500Z,21.05
2018-03-17T09:39:32.777Z,19.47
2018-03-17T09:42:01.169Z,22.63
2018-03-17T09:44:29.561Z,21.80
2018-03-17T09:46:58.550Z,19.80
2018-03-17T09:49:26.828Z,18.03
2018-03-17T09:51:56.773Z,19.02
2018-03-17T09:54:25.076Z,21.10
2018-03-17T09:56:54.110Z,17.80
2018-03-17T09:59:22.398Z,18.02
2018-03-17T10:01:50.714Z,25.23
2018-03-17T10:04:19.034Z,22.08
2018-03-17T10:06:47.354Z,19.17
2018-03-17T10:09:15.711Z,19.10
2018-03-17T10:11:44.184Z,18.90
2018-03-17T10:14:12.484Z,18.20
2018-03-17T10:16:41.447Z,18.48
2018-03-17T10:19:09.720Z,23.62
2018-03-17T10:21:38.433Z,19.33
2018-03-17T10:24:06.829Z,16.50
2018-03-17T10:26:35.154Z,17.52
2018-03-17T10:29:03.455Z,18.90
2018-03-17T10:31:31.864Z,21.13
2018-03-17T10:34:00.233Z,20.27
2018-03-17T10:36:28.568Z,19.67
2018-03-17T10:38:56.830Z,22.08
2018-03-17T10:41:25.112Z,20.23
2018-03-17T10:43:53.434Z,18.20
2018-03-17T10:46:21.784Z,18.17
2018-03-17T10:48:50.131Z,17.65
2018-03-17T10:51:18.439Z,16.10
2018-03-17T10:53:46.735Z,18.10
2018-03-17T10:56:15.016Z,15.77
2018-03-17T10:58:43.340Z,18.67
2018-03-17T11:01:17.334Z,16.53
2018-03-17T11:03:45.668Z,17.80
2018-03-17T11:06:13.964Z,17.30
2018-03-17T11:08:42.224Z,16.03
2018-03-17T11:11:10.523Z,19.73
2018-03-17T11:13:39.896Z,17.00
2018-03-17T11:16:08.159Z,22.70
2018-03-17T11:18:36.500Z,17.45
2018-03-17T11:21:04.912Z,18.40
2018-03-17T11:23:33.676Z,17.58
2018-03-17T11:26:01.957Z,18.80
2018-03-17T11:28:30.289Z,15.10
2018-03-17T11:30:58.527Z,15.13
2018-03-17T11:33:29.032Z,15.07
2018-03-17T11:35:57.401Z,18.50
2018-03-17T11:38:25.704Z,16.17
2018-03-17T11:40:54.004Z,17.70
2018-03-17T11:43:22.270Z,19.00
2018-03-17T11:45:51.369Z,12.50
2018-03-17T11:48:19.813Z,16.03
2018-03-17T11:50:48.132Z,13.07
2018-03-17T11:53:16.511Z,12.85
2018-03-17T11:55:45.067Z,16.17
2018-03-17T11:58:13.363Z,19.13
2018-03-17T12:00:41.692Z,17.40
2018-03-17T12:03:10.011Z,18.50
2018-03-17T12:05:38.297Z,15.90
2018-03-17T12:08:06.591Z,15.05
2018-03-17T12:10:34.906Z,15.30
2018-03-17T12:13:03.289Z,14.30
2018-03-17T12:15:31.747Z,14.70
2018-03-17T12:18:00.665Z,17.30
2018-03-17T12:20:28.993Z,12.00
2018-03-17T12:22:57.263Z,15.97
2018-03-17T12:25:25.552Z,16.02
2018-03-17T12:27:53.859Z,15.00
2018-03-17T12:30:22.699Z,16.40
2018-03-17T12:32:50.982Z,16.97
2018-03-17T12:35:19.270Z,12.50
2018-03-17T12:37:47.920Z,15.17
2018-03-17T12:40:16.257Z,15.70
2018-03-17T12:42:44.493Z,14.73
2018-03-17T12:45:12.815Z,14.53
2018-03-17T12:47:41.129Z,18.80
2018-03-17T12:50:09.429Z,13.20
2018-03-17T12:52:37.744Z,13.63
2018-03-17T12:55:06.044Z,13.60
2018-03-17T12:57:34.365Z,13.83
2018-03-17T13:00:02.673Z,21.83
2018-03-17T13:02:30.973Z,11.93
2018-03-17T13:04:59.308Z,20.97
2018-03-17T13:07:28.829Z,17.57
2018-03-17T13:09:57.068Z,14.83
2018-03-17T13:12:25.344Z,13.87
2018-03-17T13:14:53.762Z,25.43
2018-03-17T13:17:22.139Z,19.53
2018-03-17T13:19:50.422Z,15.90
2018-03-17T13:22:18.728Z,13.27
2018-03-17T13:24:47.027Z,15.53
2018-03-17T13:27:27.017Z,11.60
2018-03-17T13:29:55.377Z,13.20
2018-03-17T13:32:35.431Z,11.63
2018-03-17T13:35:03.727Z,13.03
2018-03-17T13:37:38.425Z,12.47
2018-03-17T13:43:05.721Z,13.50
2018-03-17T13:45:34.012Z,14.83
2018-03-17T13:48:02.334Z,16.60
2018-03-17T13:50:30.622Z,12.87
2018-03-17T13:52:58.877Z,13.60
2018-03-17T13:55:27.178Z,11.17
2018-03-17T13:57:55.486Z,14.83
2018-03-17T14:00:23.819Z,14.93
2018-03-17T14:02:52.086Z,11.20
2018-03-17T14:05:20.854Z,11.83
2018-03-17T14:07:49.110Z,17.70
2018-03-17T14:10:17.450Z,14.60
2018-03-17T14:12:45.716Z,10.27
2018-03-17T14:15:15.333Z,14.53
2018-03-17T14:17:43.784Z,12.90
2018-03-17T14:20:12.125Z,12.23
2018-03-17T14:22:41.532Z,13.17
2018-03-17T14:25:10.112Z,10.20
2018-03-17T14:27:38.527Z,13.27
2018-03-17T14:30:07.701Z,13.03
2018-03-17T14:32:35.990Z,17.07
2018-03-17T14:35:05.600Z,14.33
2018-03-17T14:37:33.890Z,13.07
2018-03-17T14:40:02.223Z,11.90
2018-03-17T14:42:30.493Z,13.23
2018-03-17T14:44:58.884Z,21.33
2018-03-17T14:47:27.223Z,10.73
2018-03-17T14:49:55.572Z,12.43
2018-03-17T14:52:24.035Z,13.93
2018-03-17T14:54:52.301Z,24.10
2018-03-17T14:57:20.621Z,11.93
2018-03-17T14:59:49.064Z,9.07
2018-03-17T15:02:17.430Z,14.20
2018-03-17T15:04:45.704Z,11.20
2018-03-17T15:07:13.996Z,11.20
2018-03-17T15:09:42.313Z,15.67
2018-03-17T15:12:10.668Z,13.10
2018-03-17T15:14:39.461Z,12.23
2018-03-17T15:17:07.824Z,11.93
2018-03-17T15:19:36.096Z,15.00
2018-03-17T15:22:04.497Z,14.80
2018-03-17T15:24:32.739Z,13.90
2018-03-17T15:27:01.124Z,13.50
2018-03-17T15:29:29.486Z,13.37
2018-03-17T15:31:57.795Z,13.20
2018-03-17T15:34:26.107Z,13.00
2018-03-17T15:36:54.404Z,13.70
2018-03-17T15:39:22.820Z,10.83
2018-03-17T15:41:51.420Z,9.43
2018-03-17T15:44:19.772Z,10.80
2018-03-17T15:46:48.021Z,6.30
2018-03-17T15:49:16.360Z,13.48
2018-03-17T15:51:44.632Z,11.50
2018-03-17T15:54:12.999Z,13.20
2018-03-17T15:56:41.273Z,18.20
2018-03-17T15:59:09.561Z,11.00
2018-03-17T16:01:37.850Z,14.73
2018-03-17T16:04:06.217Z,11.23
2018-03-17T16:06:34.461Z,12.83
2018-03-17T16:09:02.775Z,13.23
2018-03-17T16:11:31.064Z,11.23
2018-03-17T16:13:59.530Z,16.70
2018-03-17T16:16:27.817Z,13.10
2018-03-17T16:18:56.127Z,12.67
2018-03-17T16:21:24.464Z,13.60
2018-03-17T16:23:52.749Z,12.27
2018-03-17T16:26:21.034Z,12.73
2018-03-17T16:28:49.345Z,15.43
2018-03-17T16:31:17.761Z,14.95
2018-03-17T16:33:46.116Z,15.30
2018-03-17T16:36:14.440Z,13.00
2018-03-17T16:38:42.755Z,13.33
2018-03-17T16:41:11.065Z,14.63
2018-03-17T16:43:39.484Z,13.73
2018-03-17T16:46:07.845Z,11.30
2018-03-17T16:48:36.111Z,11.90
2018-03-17T16:51:05.554Z,10.90
2018-03-17T16:53:33.821Z,13.67
2018-03-17T16:56:02.145Z,11.30
2018-03-17T16:58:30.413Z,11.50
2018-03-17T17:00:58.724Z,13.80
2018-03-17T17:03:27.405Z,14.20
2018-03-17T17:05:55.752Z,16.20
2018-03-17T17:08:24.068Z,13.93
2018-03-17T17:10:52.609Z,17.03
2018-03-17T17:13:21.458Z,10.73
2018-03-17T17:15:50.616Z,11.10
2018-03-17T17:18:18.883Z,10.85
2018-03-17T17:20:47.235Z,13.00
2018-03-17T17:23:16.470Z,14.87
2018-03-17T17:25:44.797Z,13.23
2018-03-17T17:28:13.128Z,10.23
2018-03-17T17:30:41.457Z,13.03
2018-03-17T17:33:09.745Z,12.33
2018-03-17T17:35:38.357Z,16.00
2018-03-17T17:38:06.620Z,12.80
2018-03-17T17:40:34.981Z,14.68
2018-03-17T17:43:03.645Z,11.07
2018-03-17T17:45:31.958Z,16.20
2018-03-17T17:48:03.291Z,13.80
2018-03-17T17:50:31.562Z,16.13
2018-03-17T17:52:59.940Z,14.30
2018-03-17T17:55:29.160Z,15.07
2018-03-17T17:57:57.481Z,16.20
2018-03-17T18:00:25.796Z,13.97
2018-03-17T18:02:54.125Z,14.18
2018-03-17T18:05:22.553Z,13.50
2018-03-17T18:07:50.869Z,16.97
2018-03-17T18:10:19.145Z,15.77
2018-03-17T18:12:47.527Z,14.93
2018-03-17T18:15:15.824Z,15.83
2018-03-17T18:17:44.267Z,13.17
2018-03-17T18:20:12.544Z,16.37
2018-03-17T18:22:40.940Z,15.30
2018-03-17T18:25:09.296Z,16.03
2018-03-17T18:27:37.629Z,17.17
2018-03-17T18:30:05.869Z,17.57
2018-03-17T18:32:34.192Z,9.33
2018-03-17T18:35:03.416Z,15.03
2018-03-17T18:37:31.673Z,15.40
2018-03-17T18:40:00.292Z,15.47
2018-03-17T18:42:28.540Z,15.48
2018-03-17T18:44:56.910Z,15.30
2018-03-17T18:47:25.625Z,16.23
2018-03-17T18:49:54.017Z,14.27
2018-03-17T18:52:22.297Z,14.97
2018-03-17T18:54:51.509Z,13.67
2018-03-17T18:57:19.932Z,15.23
2018-03-17T18:59:48.251Z,14.37
2018-03-17T19:02:16.610Z,15.10
2018-03-17T19:04:44.887Z,12.10
2018-03-17T19:07:13.202Z,15.70
2018-03-17T19:09:41.506Z,13.00
2018-03-17T19:12:10.425Z,15.70
2018-03-17T19:14:38.809Z,14.60
2018-03-17T19:17:07.100Z,12.23
2018-03-17T19:19:35.452Z,14.43
2018-03-17T19:22:03.757Z,17.23
2018-03-17T19:24:32.028Z,51.40
2018-03-17T19:27:00.347Z,12.65
2018-03-17T19:29:28.665Z,13.37
2018-03-17T19:31:57.286Z,17.87
2018-03-17T19:34:25.569Z,14.13
2018-03-17T19:36:53.905Z,16.62
2018-03-17T19:39:22.360Z,13.00
2018-03-17T19:41:51.458Z,12.43
2018-03-17T19:44:19.794Z,12.40
2018-03-17T19:46:48.035Z,14.43
2018-03-17T19:49:16.320Z,18.00
2018-03-17T19:51:44.630Z,13.43
2018-03-17T19:54:12.956Z,14.63
2018-03-17T19:56:41.234Z,14.50
2018-03-17T19:59:10.324Z,13.93
2018-03-17T20:01:38.633Z,12.23
2018-03-17T20:04:06.936Z,13.80
2018-03-17T20:06:35.234Z,13.90
2018-03-17T20:09:03.546Z,12.67
2018-03-17T20:11:31.835Z,15.60
2018-03-17T20:14:00.110Z,14.83
2018-03-17T20:16:28.640Z,14.07
2018-03-17T20:18:57.154Z,15.60
2018-03-17T20:21:25.733Z,15.20
2018-03-17T20:23:54.039Z,12.70
2018-03-17T20:26:22.401Z,13.20
2018-03-17T20:28:50.745Z,19.00
2018-03-17T20:31:19.081Z,16.33
2018-03-17T20:33:47.383Z,16.35
2018-03-17T20:36:15.856Z,12.85
2018-03-17T20:38:44.139Z,16.75
2018-03-17T20:41:12.432Z,14.77
2018-03-17T20:43:40.736Z,11.73
2018-03-17T20:46:09.057Z,11.17
2018-03-17T20:48:38.632Z,13.45
2018-03-17T20:51:07.626Z,13.70
2018-03-17T20:53:36.285Z,12.50
2018-03-17T20:56:05.388Z,16.67
2018-03-17T20:58:33.664Z,12.07
2018-03-17T21:01:02.884Z,15.30
2018-03-17T21:03:31.223Z,21.23
2018-03-17T21:05:59.574Z,12.63
2018-03-17T21:08:28.080Z,12.17
2018-03-17T21:10:56.365Z,9.60
2018-03-17T21:13:24.689Z,12.45
2018-03-17T21:15:53.008Z,13.80
2018-03-17T21:18:21.301Z,13.87
2018-03-17T21:20:49.596Z,12.40
2018-03-17T21:23:17.929Z,11.40
2018-03-17T21:25:46.136Z,15.23
2018-03-17T21:28:14.500Z,12.07
2018-03-17T21:30:42.804Z,11.57
2018-03-17T21:33:11.342Z,12.68
2018-03-17T21:35:40.553Z,11.20
2018-03-17T21:38:08.902Z,12.88
2018-03-17T21:40:37.145Z,12.67
2018-03-17T21:43:05.609Z,12.70
2018-03-17T21:45:33.895Z,22.87
2018-03-17T21:48:02.197Z,14.40
2018-03-17T21:50:30.532Z,12.43
2018-03-17T21:52:58.850Z,12.00
2018-03-17T21:55:27.104Z,14.33
2018-03-17T21:57:55.396Z,12.93
2018-03-17T22:00:23.723Z,11.87
2018-03-17T22:02:52.108Z,10.43
2018-03-17T22:05:20.385Z,8.00
2018-03-17T22:07:48.702Z,12.73
2018-03-17T22:10:17.000Z,15.67
2018-03-17T22:12:45.340Z,12.13
2018-03-17T22:15:13.628Z,12.10
2018-03-17T22:17:41.928Z,14.03
2018-03-17T22:20:10.219Z,12.43
2018-03-17T22:22:38.515Z,9.93
2018-03-17T22:25:06.820Z,10.00
2018-03-17T22:27:35.132Z,12.03
2018-03-17T22:30:03.460Z,13.13
2018-03-17T22:32:31.805Z,14.47
2018-03-17T22:35:00.110Z,12.03
2018-03-17T22:37:29.312Z,14.13
2018-03-17T22:39:57.612Z,14.60
2018-03-17T22:42:25.880Z,12.98
2018-03-17T22:44:54.185Z,14.47
2018-03-17T22:47:22.457Z,13.05
2018-03-17T22:49:50.788Z,11.13
2018-03-17T22:52:19.119Z,11.70
2018-03-17T22:54:47.368Z,13.23
2018-03-17T22:57:15.636Z,12.50
2018-03-17T22:59:43.965Z,13.77
2018-03-17T23:02:12.262Z,12.57
2018-03-17T23:04:40.565Z,14.35
2018-03-17T23:07:08.869Z,14.10
2018-03-17T23:09:37.188Z,12.37
2018-03-17T23:12:05.440Z,13.70
2018-03-17T23:14:33.695Z,13.10
2018-03-17T23:17:02.044Z,12.73
2018-03-17T23:19:30.349Z,12.95
2018-03-17T23:21:58.683Z,15.50
2018-03-17T23:24:27.210Z,12.13
2018-03-17T23:26:55.465Z,11.73
2018-03-17T23:29:23.992Z,12.20
2018-03-17T23:31:52.327Z,14.30
2018-03-17T23:34:20.627Z,14.20
2018-03-17T23:36:49.153Z,12.50
2018-03-17T23:39:17.462Z,12.63
2018-03-17T23:41:45.752Z,14.17
2018-03-17T23:44:14.066Z,15.00
2018-03-17T23:46:42.407Z,13.80
2018-03-17T23:49:10.744Z,13.55
2018-03-17T23:51:39.936Z,15.73
2018-03-17T23:54:08.247Z,13.57
2018-03-17T23:56:36.531Z,13.93
2018-03-17T23:59:04.923Z,12.73
